Cumberland, Maine
Current Conditions -  °F | °C
As of 8:51 AM on Wednesday 26 Nov 2014 (Local Time) from KPWM Reporting Station
Broken Clouds Broken Clouds  
Wind Chill: 39°   Ceiling: 10000
Heat Index: 43°   Visibility: 10mi
Dew Point: 29°   Wind: 7mph
Humidity: 58%   Direction: 350°N
Pressure: 30.23"   Gusts: NA
Location:  43.7981°N, 70.2656°W
Report Text: KPWM 261351Z 35006KT 10SM BKN100 BKN120 06/M02 A3023 RMK AO2 SLP235 T00611017
Loading
Personal Weather Stations






























Interactive Weather Map New forecast layout! Learn more

10-Day Weather Forecast

Advertisements
Track Severe Weather on mobile